Time;durP1;ratioP1;P1;durP2;ratioP2;P2;SDS_P1;SDS_P2;PMS_P1;PMS_P2;Temp;Humidity;BMP_temperature;BMP_pressure;BME280_temperature;BME280_humidity;BME280_pressure;Samples;Min_cycle;Max_cycle;Signal;HPM_P1;HPM_P2
2022/11/30 00:02:04;;;;;;;55.28;22.35;;;;;;;8.86;100.00;100165.28;12214694;19;20479;-82
2022/11/30 00:06:07;;;;;;;64.18;26.45;;;;;;;8.83;100.00;100170.38;12192727;19;20017;-83
2022/11/30 00:10:09;;;;;;;52.55;23.23;;;;;;;8.81;100.00;100172.56;12212076;19;20385;-84
2022/11/30 00:14:11;;;;;;;41.30;17.23;;;;;;;8.79;100.00;100170.00;12215274;19;20034;-84
2022/11/30 00:18:15;;;;;;;47.83;17.52;;;;;;;8.75;100.00;100163.31;12189035;19;20021;-84
2022/11/30 00:22:17;;;;;;;57.35;21.45;;;;;;;8.73;100.00;100165.44;12211839;19;20792;-84
2022/11/30 00:26:21;;;;;;;74.22;31.58;;;;;;;8.71;100.00;100170.31;12211755;19;20405;-83
2022/11/30 00:30:23;;;;;;;54.08;23.02;;;;;;;8.72;100.00;100168.44;12191208;19;20413;-80
2022/11/30 00:34:25;;;;;;;50.05;20.25;;;;;;;8.73;100.00;100170.94;12210398;19;20019;-84
2022/11/30 00:38:27;;;;;;;72.78;28.13;;;;;;;8.72;100.00;100158.28;12210145;19;20003;-84
2022/11/30 00:42:29;;;;;;;69.40;26.63;;;;;;;8.71;100.00;100155.75;12189708;19;20475;-83
2022/11/30 00:46:31;;;;;;;44.92;19.40;;;;;;;8.70;100.00;100152.16;12211804;19;20035;-83
2022/11/30 00:50:32;;;;;;;47.90;18.63;;;;;;;8.66;100.00;100154.53;12215270;19;20010;-80
2022/11/30 00:54:34;;;;;;;47.97;16.77;;;;;;;8.67;100.00;100156.19;12189397;19;20484;-82
2022/11/30 00:58:36;;;;;;;43.42;17.40;;;;;;;8.69;100.00;100164.22;12210897;19;20691;-82
2022/11/30 01:02:37;;;;;;;40.75;15.50;;;;;;;8.70;100.00;100174.13;12209984;19;20010;-81
2022/11/30 01:06:39;;;;;;;51.88;17.00;;;;;;;8.71;100.00;100172.22;12188548;19;20014;-82
2022/11/30 01:10:43;;;;;;;39.88;16.55;;;;;;;8.72;100.00;100171.19;12209570;19;20072;-82
2022/11/30 01:14:44;;;;;;;42.20;15.68;;;;;;;8.74;100.00;100166.28;12187901;19;20015;-82
2022/11/30 01:18:47;;;;;;;37.17;15.57;;;;;;;8.77;100.00;100165.81;12208895;19;20010;-82
2022/11/30 01:22:48;;;;;;;39.20;16.35;;;;;;;8.79;100.00;100175.50;12210393;19;20003;-83
2022/11/30 01:26:50;;;;;;;40.65;16.17;;;;;;;8.81;100.00;100172.56;12190418;19;20010;-82
2022/11/30 01:31:02;;;;;;;37.70;15.57;;;;;;;8.84;100.00;100177.59;12212763;19;20014;-82
2022/11/30 01:35:04;;;;;;;38.58;15.43;;;;;;;8.84;100.00;100178.41;12212418;19;20495;-82
2022/11/30 01:39:08;;;;;;;42.20;16.70;;;;;;;8.86;100.00;100186.41;12198385;19;20026;-80
2022/11/30 01:43:10;;;;;;;49.60;16.80;;;;;;;8.86;100.00;100178.16;12261157;19;20031;-80
2022/11/30 01:47:12;;;;;;;39.55;15.75;;;;;;;8.82;100.00;100177.81;12261369;19;20027;-82
2022/11/30 01:51:14;;;;;;;38.97;16.58;;;;;;;8.81;100.00;100176.13;12195469;19;20125;-83
2022/11/30 01:55:31;;;;;;;42.45;16.40;;;;;;;8.83;100.00;100182.25;12210951;19;20035;-83
2022/11/30 01:59:33;;;;;;;41.45;15.98;;;;;;;8.84;100.00;100181.16;12214035;19;20479;-82
2022/11/30 02:03:51;;;;;;;38.35;15.55;;;;;;;8.83;100.00;100174.00;12190665;19;20011;-83
2022/11/30 02:07:54;;;;;;;37.83;15.20;;;;;;;8.82;100.00;100182.47;12202401;19;20019;-82
2022/11/30 02:11:56;;;;;;;37.22;15.73;;;;;;;8.81;100.00;100178.03;12190410;19;20015;-84
2022/11/30 02:16:14;;;;;;;38.33;17.00;;;;;;;8.79;100.00;100183.75;12212539;19;20011;-81
2022/11/30 02:20:37;;;;;;;39.10;15.15;;;;;;;8.78;100.00;100182.09;12218571;19;20014;-81
2022/11/30 02:24:42;;;;;;;39.05;15.88;;;;;;;8.75;100.00;100176.22;12198422;19;20010;-83
2022/11/30 02:29:05;;;;;;;40.20;15.55;;;;;;;8.77;100.00;100174.06;12218578;19;20032;-83
2022/11/30 02:33:20;;;;;;;34.67;16.52;;;;;;;8.74;100.00;100180.84;12198732;19;20010;-83
2022/11/30 02:37:24;;;;;;;35.10;15.40;;;;;;;8.75;100.00;100181.72;12219005;19;20014;-82
2022/11/30 02:41:26;;;;;;;35.83;14.80;;;;;;;8.76;100.00;100183.38;12221849;19;20010;-82
2022/11/30 02:45:52;;;;;;;37.13;15.30;;;;;;;8.72;100.00;100174.75;12196103;19;20357;-81
2022/11/30 02:50:10;;;;;;;37.05;15.35;;;;;;;8.72;100.00;100182.16;12219165;19;20011;-82
2022/11/30 02:54:12;;;;;;;35.80;14.57;;;;;;;8.71;100.00;100177.72;12196357;19;20017;-81
2022/11/30 02:58:16;;;;;;;35.78;15.13;;;;;;;8.72;100.00;100187.66;12216092;19;20430;-81
2022/11/30 03:02:17;;;;;;;35.17;14.93;;;;;;;8.69;100.00;100185.38;12266511;19;20015;-80
2022/11/30 03:06:19;;;;;;;34.25;14.95;;;;;;;8.67;100.00;100189.16;12229866;19;20451;-82
2022/11/30 03:10:21;;;;;;;38.38;14.77;;;;;;;8.66;100.00;100183.91;12219827;19;20011;-82
2022/11/30 03:14:23;;;;;;;39.67;14.77;;;;;;;8.66;100.00;100187.50;12217108;19;20035;-82
2022/11/30 03:18:24;;;;;;;32.85;14.05;;;;;;;8.68;100.00;100192.75;12190453;19;20031;-81
2022/11/30 03:22:26;;;;;;;38.88;15.48;;;;;;;8.67;100.00;100191.09;12214120;19;20754;-82
2022/11/30 03:26:27;;;;;;;36.83;14.45;;;;;;;8.67;100.00;100194.66;12216613;19;20006;-81
2022/11/30 03:30:29;;;;;;;32.33;14.48;;;;;;;8.67;100.00;100200.16;12194081;19;20006;-82
2022/11/30 03:34:30;;;;;;;31.42;13.32;;;;;;;8.71;100.00;100196.94;12210084;19;20019;-82
2022/11/30 03:38:33;;;;;;;31.98;14.15;;;;;;;8.71;100.00;100206.03;12213141;19;20031;-82
2022/11/30 03:42:35;;;;;;;34.28;14.68;;;;;;;8.70;100.00;100198.88;12193592;19;20078;-82
2022/11/30 03:46:36;;;;;;;31.65;14.10;;;;;;;8.66;100.00;100201.22;12212825;19;20455;-82
2022/11/30 03:50:38;;;;;;;35.50;14.55;;;;;;;8.69;100.00;100199.09;12220813;19;20010;-81
2022/11/30 03:54:40;;;;;;;34.15;13.85;;;;;;;8.66;100.00;100203.97;12192749;19;20031;-82
2022/11/30 03:58:42;;;;;;;37.72;15.88;;;;;;;8.65;100.00;100201.44;12210392;19;20671;-83
2022/11/30 04:02:46;;;;;;;40.58;16.42;;;;;;;8.62;100.00;100208.22;12189768;19;20471;-82
2022/11/30 04:06:48;;;;;;;38.58;15.55;;;;;;;8.59;100.00;100208.69;12213894;19;20389;-83
2022/11/30 04:10:51;;;;;;;38.38;16.02;;;;;;;8.55;100.00;100207.47;12215328;19;20006;-83
2022/11/30 04:14:53;;;;;;;39.28;15.43;;;;;;;8.54;100.00;100207.72;12191020;19;20140;-82
2022/11/30 04:18:54;;;;;;;46.63;15.75;;;;;;;8.54;100.00;100208.56;12211056;19;20064;-83
2022/11/30 04:22:57;;;;;;;49.00;16.63;;;;;;;8.51;100.00;100203.50;12214305;19;20006;-83
2022/11/30 04:26:58;;;;;;;41.72;16.52;;;;;;;8.51;100.00;100209.00;12193430;19;20013;-83
2022/11/30 04:31:01;;;;;;;42.55;15.57;;;;;;;8.51;100.00;100214.50;12211692;19;20477;-81
2022/11/30 04:35:03;;;;;;;;;;;;;;;8.52;100.00;100207.94;12211724;19;20094;-83
2022/11/30 04:39:05;;;;;;;38.47;14.48;;;;;;;8.54;100.00;100204.97;12186603;19;19915;-82
2022/11/30 04:43:08;;;;;;;41.10;15.88;;;;;;;8.52;100.00;100202.44;12209005;19;20031;-82
2022/11/30 04:47:09;;;;;;;46.45;16.33;;;;;;;8.52;100.00;100196.94;12209546;19;20011;-82
2022/11/30 04:51:11;;;;;;;46.65;16.67;;;;;;;8.53;100.00;100204.09;12190776;19;20419;-82
2022/11/30 04:55:12;;;;;;;45.13;16.75;;;;;;;8.51;100.00;100206.25;12208444;19;20010;-82
2022/11/30 04:59:14;;;;;;;46.03;16.80;;;;;;;8.53;100.00;100212.34;12210090;19;20010;-81
2022/11/30 05:03:15;;;;;;;42.95;16.00;;;;;;;8.54;100.00;100214.03;12186843;19;20497;-82
2022/11/30 05:07:17;;;;;;;45.28;15.93;;;;;;;8.57;100.00;100215.50;12208076;19;20038;-83
2022/11/30 05:11:19;;;;;;;44.65;16.35;;;;;;;8.56;100.00;100214.63;12210331;19;20011;-82
2022/11/30 05:15:21;;;;;;;46.92;16.85;;;;;;;8.56;100.00;100211.88;12186967;19;20060;-82
2022/11/30 05:19:23;;;;;;;47.53;18.52;;;;;;;8.55;100.00;100215.72;12207052;19;20373;-83
2022/11/30 05:23:24;;;;;;;48.30;18.60;;;;;;;8.50;100.00;100215.53;12207786;19;20047;-81
2022/11/30 05:27:26;;;;;;;50.63;17.90;;;;;;;8.49;100.00;100216.63;12188383;19;20015;-81
2022/11/30 05:31:28;;;;;;;42.30;17.55;;;;;;;8.47;100.00;100221.50;12214933;19;20042;-83
2022/11/30 05:35:30;;;;;;;49.42;16.98;;;;;;;8.51;100.00;100222.75;12214409;19;20344;-83
2022/11/30 05:39:31;;;;;;;48.10;17.33;;;;;;;8.52;100.00;100220.81;12194520;19;20007;-82
2022/11/30 05:43:33;;;;;;;48.03;17.20;;;;;;;8.49;100.00;100224.03;12224196;19;20074;-82
2022/11/30 05:47:35;;;;;;;44.20;16.20;;;;;;;8.49;100.00;100219.38;12215161;19;20190;-83
2022/11/30 05:51:39;;;;;;;39.28;16.38;;;;;;;8.52;100.00;100218.09;12193354;19;20037;-83
2022/11/30 05:55:41;;;;;;;43.60;15.60;;;;;;;8.53;100.00;100223.34;12225233;19;20014;-82
2022/11/30 05:59:42;;;;;;;50.22;16.67;;;;;;;8.53;100.00;100225.25;12226039;19;20504;-83
2022/11/30 06:03:44;;;;;;;50.13;16.02;;;;;;;8.52;100.00;100221.66;12197426;19;20010;-83
2022/11/30 06:07:46;;;;;;;46.63;16.08;;;;;;;8.57;100.00;100226.50;12219507;19;20092;-82
2022/11/30 06:11:47;;;;;;;39.95;15.30;;;;;;;8.59;100.00;100229.81;12198077;19;20040;-83
2022/11/30 06:15:49;;;;;;;53.05;16.88;;;;;;;8.59;100.00;100232.56;12218841;19;20015;-82
2022/11/30 06:19:50;;;;;;;45.13;16.50;;;;;;;8.59;100.00;100236.16;12216025;19;20011;-82
2022/11/30 06:23:52;;;;;;;45.30;14.75;;;;;;;8.62;100.00;100232.97;12198339;19;20031;-83
2022/11/30 06:27:54;;;;;;;39.08;15.75;;;;;;;8.65;100.00;100235.25;12222050;19;20068;-81
2022/11/30 06:31:55;;;;;;;37.28;15.30;;;;;;;8.62;100.00;100243.94;12214105;19;20088;-83
2022/11/30 06:35:57;;;;;;;37.40;16.23;;;;;;;8.64;100.00;100240.97;12186022;19;20014;-81
2022/11/30 06:39:59;;;;;;;43.25;16.38;;;;;;;8.64;100.00;100238.25;12197071;19;20010;-82
2022/11/30 06:44:09;;;;;;;44.35;18.48;;;;;;;8.63;100.00;100242.91;12216677;19;20011;-82
2022/11/30 06:48:11;;;;;;;43.70;17.98;;;;;;;8.63;100.00;100248.41;12197857;19;20026;-83
2022/11/30 06:52:13;;;;;;;45.67;19.67;;;;;;;8.64;100.00;100249.22;12220057;19;20015;-83
2022/11/30 06:56:15;;;;;;;47.70;16.20;;;;;;;8.65;100.00;100245.41;12220062;19;20002;-83
2022/11/30 07:00:18;;;;;;;36.63;16.00;;;;;;;8.65;100.00;100248.97;12201535;19;20011;-82
2022/11/30 07:04:19;;;;;;;37.88;14.98;;;;;;;8.66;100.00;100247.09;12219227;19;20076;-82
2022/11/30 07:08:21;;;;;;;39.47;13.50;;;;;;;8.69;100.00;100254.06;12219098;19;20018;-82
2022/11/30 07:12:23;;;;;;;40.67;15.25;;;;;;;8.70;100.00;100253.81;12199635;19;20010;-82
2022/11/30 07:16:25;;;;;;;41.42;14.25;;;;;;;8.74;100.00;100254.19;12220259;19;20054;-82
2022/11/30 07:20:27;;;;;;;37.10;14.80;;;;;;;8.79;100.00;100262.59;12222089;19;20022;-82
2022/11/30 07:28:53;;;;;;;30.83;12.80;;;;;;;8.88;100.00;100258.50;12220975;19;20015;-83
2022/11/30 07:32:55;;;;;;;34.92;13.32;;;;;;;8.92;100.00;100251.47;12204702;19;20018;-82
2022/11/30 07:36:57;;;;;;;32.63;13.00;;;;;;;8.95;100.00;100262.00;12220814;19;20090;-83
2022/11/30 07:40:59;;;;;;;40.72;14.45;;;;;;;8.99;100.00;100257.75;12220790;19;20060;-81
2022/11/30 07:45:00;;;;;;;39.40;15.55;;;;;;;9.04;100.00;100266.16;12195028;19;20046;-82
2022/11/30 07:49:05;;;;;;;39.40;14.73;;;;;;;9.07;100.00;100265.69;12216216;19;20007;-82
2022/11/30 07:53:07;;;;;;;47.97;16.15;;;;;;;9.09;100.00;100265.44;12217678;19;20036;-82
2022/11/30 07:57:08;;;;;;;43.15;16.67;;;;;;;9.08;100.00;100256.38;12197606;19;20031;-82
2022/11/30 08:01:14;;;;;;;43.88;16.98;;;;;;;9.13;100.00;100262.03;12268460;19;20014;-80
2022/11/30 08:05:16;;;;;;;48.28;17.67;;;;;;;9.17;100.00;100264.31;12254840;19;20364;-83
2022/11/30 08:09:17;;;;;;;44.88;16.48;;;;;;;9.18;100.00;100265.97;12232387;19;20007;-80
2022/11/30 08:13:21;;;;;;;40.83;14.75;;;;;;;9.20;100.00;100261.09;12271608;19;20014;-80
2022/11/30 08:17:23;;;;;;;35.05;15.43;;;;;;;9.23;100.00;100264.22;12239806;19;20010;-83
2022/11/30 08:21:25;;;;;;;36.75;16.08;;;;;;;9.28;100.00;100264.38;12204652;19;20007;-82
2022/11/30 08:25:27;;;;;;;35.80;15.80;;;;;;;9.31;100.00;100269.44;12220176;19;20483;-82
2022/11/30 08:29:29;;;;;;;39.67;14.85;;;;;;;9.35;100.00;100269.78;12219507;19;20031;-82
2022/11/30 08:33:31;;;;;;;34.38;14.73;;;;;;;9.33;100.00;100271.94;12196933;19;20011;-83
2022/11/30 08:37:36;;;;;;;23.45;11.48;;;;;;;9.36;100.00;100274.22;12217452;19;20010;-83
2022/11/30 08:41:38;;;;;;;31.55;14.40;;;;;;;9.40;100.00;100286.47;12218052;19;20010;-82
2022/11/30 08:45:39;;;;;;;28.27;12.57;;;;;;;9.50;100.00;100283.97;12195400;19;20013;-83
2022/11/30 08:49:41;;;;;;;30.95;13.73;;;;;;;9.64;100.00;100294.81;12213320;19;20003;-82
2022/11/30 08:53:43;;;;;;;22.88;12.02;;;;;;;9.71;100.00;100301.06;12216698;19;20085;-82
2022/11/30 08:57:45;;;;;;;29.48;12.70;;;;;;;9.77;100.00;100302.91;12194044;19;20528;-81
2022/11/30 09:01:47;;;;;;;33.00;14.27;;;;;;;9.79;100.00;100300.75;12216589;19;20010;-82
2022/11/30 09:05:48;;;;;;;24.17;13.70;;;;;;;9.78;100.00;100308.16;12209790;19;20024;-82
2022/11/30 09:09:50;;;;;;;66.90;34.20;;;;;;;9.79;100.00;100309.84;12241792;19;20015;-82
2022/11/30 09:13:55;;;;;;;70.47;36.55;;;;;;;9.81;100.00;100312.34;12229357;19;20089;-82
2022/11/30 09:17:57;;;;;;;34.90;18.33;;;;;;;9.85;100.00;100318.25;12197114;19;20070;-82
2022/11/30 09:21:59;;;;;;;25.15;13.50;;;;;;;9.82;100.00;100320.41;12215324;19;20100;-81
2022/11/30 09:26:03;;;;;;;22.75;13.02;;;;;;;9.83;100.00;100315.72;12220185;19;20007;-82
2022/11/30 09:30:05;;;;;;;25.17;13.60;;;;;;;9.85;100.00;100326.53;12216203;19;20036;-82
2022/11/30 09:34:10;;;;;;;25.17;12.60;;;;;;;9.82;100.00;100325.06;12238639;19;20019;-82
2022/11/30 09:38:11;;;;;;;19.80;11.27;;;;;;;9.79;100.00;100325.53;12235548;19;20337;-82
2022/11/30 09:42:50;;;;;;;26.75;15.00;;;;;;;9.83;100.00;100318.47;12216224;19;20023;-82
2022/11/30 09:47:18;;;;;;;25.45;13.13;;;;;;;9.96;100.00;100321.03;12234966;19;20082;-82
2022/11/30 09:51:26;;;;;;;23.23;12.32;;;;;;;10.09;100.00;100316.44;12213714;19;20017;-82
2022/11/30 09:55:42;;;;;;;21.30;12.05;;;;;;;10.11;100.00;100315.09;12235656;19;20345;-83
2022/11/30 09:59:58;;;;;;;23.10;12.02;;;;;;;10.10;100.00;100313.44;12236120;19;20465;-82
2022/11/30 10:04:01;;;;;;;20.58;11.93;;;;;;;10.09;100.00;100321.94;12212489;19;20010;-82
2022/11/30 10:08:11;;;;;;;20.27;10.68;;;;;;;10.16;100.00;100318.00;12234487;19;20010;-81
2022/11/30 10:12:47;;;;;;;18.85;11.07;;;;;;;10.23;100.00;100318.75;12211314;19;20018;-82
2022/11/30 10:17:04;;;;;;;50.65;25.42;;;;;;;10.29;100.00;100325.25;12231730;19;20006;-83
2022/11/30 10:21:16;;;;;;;28.10;15.77;;;;;;;10.27;100.00;100316.41;12212576;19;20015;-83
2022/11/30 10:25:31;;;;;;;25.55;13.90;;;;;;;10.33;100.00;100318.22;12234482;19;20063;-83
2022/11/30 10:29:37;;;;;;;23.60;12.93;;;;;;;10.41;100.00;100317.00;12234324;19;20048;-83
2022/11/30 10:33:47;;;;;;;20.88;12.15;;;;;;;10.55;100.00;100314.88;12213823;19;20006;-83
2022/11/30 10:37:52;;;;;;;21.02;11.70;;;;;;;10.75;100.00;100309.03;12224192;19;20027;-82
2022/11/30 10:41:59;;;;;;;21.25;11.00;;;;;;;10.90;100.00;100307.47;12199816;19;20441;-83
2022/11/30 10:46:01;;;;;;;16.17;9.63;;;;;;;10.94;100.00;100302.31;12220192;19;20042;-82
2022/11/30 10:50:04;;;;;;;21.77;12.43;;;;;;;10.90;100.00;100301.97;12214236;19;20018;-83
2022/11/30 10:54:28;;;;;;;14.60;9.10;;;;;;;10.94;100.00;100296.81;12198919;19;20014;-82
2022/11/30 10:58:55;;;;;;;17.42;9.73;;;;;;;10.91;100.00;100294.53;12214006;19;20003;-84
2022/11/30 11:02:57;;;;;;;16.42;9.45;;;;;;;10.88;100.00;100289.50;12191365;19;20027;-81
2022/11/30 11:07:09;;;;;;;13.48;7.85;;;;;;;10.79;100.00;100280.75;12213469;19;20006;-81
2022/11/30 11:11:33;;;;;;;13.23;7.68;;;;;;;10.78;100.00;100283.75;12214570;19;20035;-82
2022/11/30 11:15:35;;;;;;;14.77;8.55;;;;;;;10.79;100.00;100282.66;12193718;19;20015;-82
2022/11/30 11:19:40;;;;;;;16.80;9.17;;;;;;;10.82;100.00;100279.44;12212373;19;20011;-82
2022/11/30 11:23:44;;;;;;;17.00;9.80;;;;;;;10.85;100.00;100290.81;12213244;19;20044;-81
2022/11/30 11:27:54;;;;;;;16.75;10.32;;;;;;;10.86;100.00;100286.16;12190892;19;20090;-83
2022/11/30 11:32:18;;;;;;;19.77;10.05;;;;;;;10.76;100.00;100283.16;12214876;19;20078;-82
2022/11/30 11:36:31;;;;;;;20.42;12.57;;;;;;;10.68;100.00;100271.41;12195038;19;20006;-83
2022/11/30 11:40:32;;;;;;;16.45;10.25;;;;;;;10.68;100.00;100270.59;12218727;19;20018;-83
2022/11/30 11:44:34;;;;;;;15.85;10.00;;;;;;;10.75;100.00;100274.03;12215030;19;20010;-84
2022/11/30 11:48:44;;;;;;;19.20;10.88;;;;;;;10.81;100.00;100278.59;12192488;19;20015;-81
2022/11/30 11:52:46;;;;;;;17.58;9.63;;;;;;;10.85;100.00;100274.28;12213257;19;20010;-83
2022/11/30 11:56:48;;;;;;;18.48;10.10;;;;;;;10.97;100.00;100278.94;12218455;19;20007;-83
2022/11/30 12:00:53;;;;;;;16.47;9.03;;;;;;;11.06;100.00;100285.78;12191625;19;20710;-81
2022/11/30 12:05:25;;;;;;;16.00;9.65;;;;;;;11.17;100.00;100290.44;12202269;19;20026;-82
2022/11/30 12:09:33;;;;;;;19.15;12.02;;;;;;;11.22;100.00;100275.94;12184811;19;20014;-82
2022/11/30 12:13:41;;;;;;;18.85;9.45;;;;;;;11.31;100.00;100274.47;12212528;19;20014;-83
2022/11/30 12:18:10;;;;;;;32.65;19.38;;;;;;;11.26;100.00;100275.19;12217270;19;20076;-82
2022/11/30 12:22:50;;;;;;;16.88;10.85;;;;;;;11.25;100.00;100278.19;12103329;19;2004789;-82
2022/11/30 12:27:23;;;;;;;16.75;9.95;;;;;;;11.47;100.00;100286.66;12192105;19;20039;-83
2022/11/30 12:31:49;;;;;;;16.92;9.60;;;;;;;11.67;100.00;100284.31;12203495;19;20002;-83
2022/11/30 12:36:06;;;;;;;15.98;9.95;;;;;;;11.85;100.00;100278.63;12196773;19;20018;-82
2022/11/30 12:40:17;;;;;;;14.70;8.40;;;;;;;11.88;100.00;100284.75;12200267;19;20082;-82
2022/11/30 12:44:33;;;;;;;13.40;8.93;;;;;;;11.87;100.00;100281.16;12202090;19;20006;-83
2022/11/30 12:49:05;;;;;;;13.07;8.43;;;;;;;11.88;100.00;100270.94;12185202;19;20006;-83
2022/11/30 12:53:17;;;;;;;16.70;9.68;;;;;;;11.89;100.00;100278.13;12214057;19;20035;-84
2022/11/30 12:57:26;;;;;;;15.40;9.02;;;;;;;11.88;100.00;100284.75;12194910;19;20014;-84
2022/11/30 13:01:41;;;;;;;13.35;8.45;;;;;;;11.92;100.00;100288.69;12214623;19;20003;-84
2022/11/30 13:05:50;;;;;;;14.55;8.60;;;;;;;11.89;100.00;100281.72;12253151;19;20007;-81
2022/11/30 13:10:05;;;;;;;15.35;9.60;;;;;;;11.90;100.00;100282.56;12230955;19;20064;-83
2022/11/30 13:14:22;;;;;;;14.88;9.32;;;;;;;11.84;100.00;100279.69;12218087;19;20344;-84
2022/11/30 13:18:24;;;;;;;14.45;9.70;;;;;;;11.76;100.00;100277.31;12197918;19;20100;-83
2022/11/30 13:22:41;;;;;;;11.60;8.23;;;;;;;11.68;100.00;100280.47;12220131;19;20058;-84
2022/11/30 13:26:46;;;;;;;13.80;9.45;;;;;;;11.62;100.00;100281.44;12222021;19;20011;-84
2022/11/30 13:31:06;;;;;;;15.93;9.13;;;;;;;11.54;100.00;100279.06;12197697;19;20042;-84
2022/11/30 13:35:26;;;;;;;13.25;8.82;;;;;;;11.34;100.00;100277.56;12219174;19;20010;-85
2022/11/30 13:39:50;;;;;;;15.05;10.43;;;;;;;11.27;100.00;100289.81;12191498;19;20078;-82
2022/11/30 13:43:51;;;;;;;16.98;9.15;;;;;;;11.21;100.00;100288.84;12212700;19;20539;-83
2022/11/30 13:47:57;;;;;;;15.88;9.43;;;;;;;11.22;100.00;100285.03;12190590;19;20046;-83
2022/11/30 13:52:00;;;;;;;13.18;8.98;;;;;;;11.12;100.00;100282.03;12208244;19;20039;-84
2022/11/30 13:56:37;;;;;;;15.30;9.70;;;;;;;10.98;100.00;100281.47;12210542;19;20014;-85
2022/11/30 14:01:22;;;;;;;15.05;8.70;;;;;;;10.87;100.00;100287.84;12188421;19;20364;-82
2022/11/30 14:05:31;;;;;;;14.70;9.10;;;;;;;10.75;100.00;100287.81;12236199;19;20059;-83
2022/11/30 14:09:41;;;;;;;15.65;9.35;;;;;;;10.66;100.00;100279.06;12189719;19;20421;-82
2022/11/30 14:13:43;;;;;;;16.88;9.98;;;;;;;10.60;100.00;100287.47;12223120;19;20014;-84
2022/11/30 14:17:45;;;;;;;14.93;8.90;;;;;;;10.57;100.00;100285.19;12227693;19;20027;-83
2022/11/30 14:21:47;;;;;;;15.68;9.10;;;;;;;10.52;100.00;100294.16;12204344;19;20010;-84
2022/11/30 14:25:55;;;;;;;18.07;9.10;;;;;;;10.41;100.00;100295.84;12273218;19;20067;-81
2022/11/30 14:30:00;;;;;;;15.00;8.45;;;;;;;10.37;100.00;100294.59;12251785;19;20032;-82
2022/11/30 14:34:13;;;;;;;16.80;9.68;;;;;;;10.37;100.00;100300.13;12237788;19;20014;-83
2022/11/30 14:38:25;;;;;;;15.37;9.07;;;;;;;10.31;100.00;100303.00;12229392;19;20014;-83
2022/11/30 14:42:30;;;;;;;17.63;9.25;;;;;;;10.24;100.00;100306.66;12201967;19;20050;-83
2022/11/30 14:46:33;;;;;;;16.63;9.02;;;;;;;10.19;100.00;100302.94;12222142;19;20044;-84
2022/11/30 14:50:41;;;;;;;13.45;8.32;;;;;;;10.14;100.00;100302.78;12218868;19;20011;-83
2022/11/30 14:54:55;;;;;;;17.52;8.30;;;;;;;10.12;100.00;100310.47;12184676;19;20017;-82
2022/11/30 14:59:19;;;;;;;16.80;9.25;;;;;;;10.11;100.00;100298.56;12216844;19;20010;-84
2022/11/30 15:03:26;;;;;;;18.75;10.02;;;;;;;10.10;100.00;100301.59;12196007;19;20033;-83
2022/11/30 15:07:28;;;;;;;20.08;10.38;;;;;;;10.02;100.00;100302.75;12218471;19;20038;-83
2022/11/30 15:11:30;;;;;;;17.98;9.63;;;;;;;9.99;100.00;100298.56;12217019;19;20020;-83
2022/11/30 15:15:32;;;;;;;19.10;10.10;;;;;;;9.94;100.00;100301.19;12196353;19;20007;-83
2022/11/30 15:19:46;;;;;;;18.85;9.70;;;;;;;9.94;100.00;100301.19;12214727;19;20014;-83
2022/11/30 15:23:48;;;;;;;16.40;9.02;;;;;;;9.92;100.00;100305.22;12217340;19;20022;-83
2022/11/30 15:27:52;;;;;;;16.27;9.48;;;;;;;9.87;100.00;100307.84;12197845;19;20021;-82
2022/11/30 15:31:55;;;;;;;16.50;8.90;;;;;;;9.85;100.00;100305.34;12216512;19;20074;-83
2022/11/30 15:35:58;;;;;;;17.42;9.25;;;;;;;9.82;100.00;100311.31;12196805;19;20010;-84
2022/11/30 15:40:38;;;;;;;15.88;9.60;;;;;;;9.79;100.00;100315.34;12215474;19;20018;-83
2022/11/30 15:44:44;;;;;;;13.48;7.82;;;;;;;9.75;100.00;100310.53;12215567;19;20081;-84
2022/11/30 15:48:47;;;;;;;16.83;9.70;;;;;;;9.72;100.00;100313.75;12194786;19;20010;-83
2022/11/30 15:52:51;;;;;;;17.67;9.82;;;;;;;9.70;100.00;100308.50;12213898;19;20393;-84
2022/11/30 15:56:56;;;;;;;18.02;9.43;;;;;;;9.68;100.00;100320.81;12199420;19;20015;-83
2022/11/30 16:01:05;;;;;;;18.13;8.85;;;;;;;9.66;100.00;100314.69;12221286;19;20019;-84
2022/11/30 16:05:10;;;;;;;20.10;9.75;;;;;;;9.70;100.00;100319.50;12215541;19;20025;-83
2022/11/30 16:09:31;;;;;;;18.38;9.75;;;;;;;9.72;100.00;100327.50;12188719;19;20010;-83
2022/11/30 16:13:33;;;;;;;23.50;12.50;;;;;;;9.70;100.00;100321.41;12212098;19;20003;-83
2022/11/30 16:17:34;;;;;;;22.25;12.63;;;;;;;9.72;100.00;100333.00;12213699;19;20377;-82
2022/11/30 16:21:36;;;;;;;19.67;10.00;;;;;;;9.69;100.00;100333.47;12190051;19;20781;-84
2022/11/30 16:25:38;;;;;;;17.25;8.57;;;;;;;9.67;100.00;100338.41;12212364;19;20019;-83
2022/11/30 16:29:39;;;;;;;35.67;17.77;;;;;;;9.62;100.00;100333.56;12212641;19;20030;-83
2022/11/30 16:33:41;;;;;;;54.45;24.85;;;;;;;9.55;100.00;100333.66;12191293;19;20035;-84
2022/11/30 16:37:42;;;;;;;44.15;21.30;;;;;;;9.54;100.00;100331.97;12210095;19;20039;-84
2022/11/30 16:41:44;;;;;;;40.17;20.40;;;;;;;9.51;100.00;100332.44;12212871;19;20023;-83
2022/11/30 16:45:49;;;;;;;29.52;16.10;;;;;;;9.49;100.00;100340.09;12195134;19;20502;-83
2022/11/30 16:49:51;;;;;;;35.92;18.60;;;;;;;9.46;100.00;100350.69;12215521;19;20014;-84
2022/11/30 16:53:54;;;;;;;32.65;15.88;;;;;;;9.44;100.00;100348.19;12197597;19;20493;-84
2022/11/30 16:57:55;;;;;;;43.28;21.63;;;;;;;9.38;100.00;100348.25;12214036;19;20641;-84
2022/11/30 17:01:57;;;;;;;34.65;16.42;;;;;;;9.35;100.00;100349.56;12215590;19;20007;-84
2022/11/30 17:05:59;;;;;;;33.90;16.65;;;;;;;9.34;100.00;100359.72;12196357;19;20058;-82
2022/11/30 17:10:01;;;;;;;42.05;19.73;;;;;;;9.34;100.00;100369.88;12218071;19;20101;-84
2022/11/30 17:14:03;;;;;;;33.95;15.68;;;;;;;9.30;100.00;100363.16;12219805;19;20014;-82
2022/11/30 17:18:05;;;;;;;32.47;14.90;;;;;;;9.25;100.00;100371.22;12196789;19;20007;-83
2022/11/30 17:22:07;;;;;;;30.92;16.05;;;;;;;9.20;100.00;100376.59;12220268;19;20909;-82
2022/11/30 17:26:12;;;;;;;26.90;13.43;;;;;;;9.17;100.00;100375.13;12216058;19;20546;-84
2022/11/30 17:30:16;;;;;;;25.42;13.32;;;;;;;9.16;100.00;100375.34;12195371;19;20082;-81
2022/11/30 17:34:17;;;;;;;44.10;21.02;;;;;;;9.13;100.00;100380.25;12215118;19;20010;-83
2022/11/30 17:38:19;;;;;;;38.75;20.60;;;;;;;9.10;100.00;100375.19;12214295;19;20014;-83
2022/11/30 17:42:21;;;;;;;37.78;19.63;;;;;;;9.07;100.00;100381.16;12188807;19;20007;-83
2022/11/30 17:46:23;;;;;;;29.03;15.77;;;;;;;9.04;100.00;100372.50;12210152;19;20012;-82
2022/11/30 17:50:25;;;;;;;38.30;17.90;;;;;;;9.00;100.00;100380.34;12224239;19;20039;-83
2022/11/30 17:54:26;;;;;;;36.22;16.38;;;;;;;8.97;100.00;100386.31;12201959;19;20177;-82
2022/11/30 17:58:29;;;;;;;24.15;12.30;;;;;;;8.93;100.00;100376.84;12220474;19;20011;-83
2022/11/30 18:02:36;;;;;;;24.75;11.27;;;;;;;8.86;100.00;100390.66;12223973;19;20074;-84
2022/11/30 18:06:38;;;;;;;23.80;12.13;;;;;;;8.82;100.00;100386.66;12222631;19;20022;-82
2022/11/30 18:10:42;;;;;;;25.33;12.90;;;;;;;8.78;100.00;100395.59;12275219;19;20003;-79
2022/11/30 18:14:44;;;;;;;25.05;11.57;;;;;;;8.75;100.00;100402.34;12241116;19;20111;-83
2022/11/30 18:18:46;;;;;;;23.87;11.90;;;;;;;8.73;100.00;100400.91;12205052;19;20014;-81
2022/11/30 18:22:49;;;;;;;;;;;;;;;8.69;100.00;100397.75;12227116;19;20240;-79
2022/11/30 18:26:52;;;;;;;20.48;9.80;;;;;;;8.68;100.00;100401.56;12224059;19;20402;-83
2022/11/30 18:30:54;;;;;;;20.98;10.65;;;;;;;8.64;100.00;100398.41;12225610;19;20031;-79